Princeton, Massachusetts
Current Conditions -  °F | °C
As of 12:52 AM on Friday 28 Nov 2014 (Local Time) from KFIT Reporting Station
Light Snow Light Snow  
Wind Chill: 29°   Ceiling: 2200
Heat Index: 29°   Visibility: 1.5mi
Dew Point: 24°   Wind: 3mph
Humidity: 82%   Direction: 330°NNW
Pressure: 30"   Gusts: NA
Location:  42.45°N, 71.88°W
Report Text: KFIT 280552Z AUTO 33003KT 1 1/2SM -SN OVC022 M02/M04 A3000 RMK AO2 SNB05 SLP164 P0000 60000 T10171044 11006 21017 58004
Loading
Personal Weather Stations






























Interactive Weather Map New forecast layout! Learn more

10-Day Weather Forecast

Advertisements
Track Severe Weather on mobile